Urb Country Club, Puerto Rico
Current Conditions -  °F | °C
As of 12:56 PM on Friday 19 Dec 2014 (Local Time) from TJSJ Reporting Station
Clear Clear  
Wind Chill: 84°   Ceiling: Unl
Heat Index: 86°   Visibility: 10mi
Dew Point: 66°   Wind: 16mph
Humidity: 55%   Direction: 70°ENE
Pressure: 29.99"   Gusts: NA
Location:  18.4078°N, 65.9794°W
Report Text: TJSJ 191656Z 07014KT 10SM CLR 29/19 A2999 RMK AO2 SLP153 T02890189
Loading
Personal Weather Stations






























Interactive Weather Map New forecast layout! Learn more

10-Day Weather Forecast

Advertisements
Track Severe Weather on mobile